createdAt,value
2023-02-11T00:00:15.655Z,103539.25
2023-02-11T00:02:42.553Z,103545.25
2023-02-11T00:05:09.565Z,103527.19
2023-02-11T00:07:36.308Z,103548.88
2023-02-11T00:10:04.361Z,103553.34
2023-02-11T00:12:30.907Z,103537.09
2023-02-11T00:14:57.529Z,103548.34
2023-02-11T00:17:24.138Z,103547.63
2023-02-11T00:19:53.787Z,103564.19
2023-02-11T00:22:20.704Z,103553.59
2023-02-11T00:24:47.564Z,103568.63
2023-02-11T00:27:14.142Z,103550.41
2023-02-11T00:29:40.691Z,103548.75
2023-02-11T00:32:08.872Z,103566.88
2023-02-11T00:34:36.882Z,103556.47
2023-02-11T00:37:03.598Z,103561.97
2023-02-11T00:39:30.339Z,103556.69
2023-02-11T00:41:57.581Z,103557.50
2023-02-11T00:44:24.536Z,103563.50
2023-02-11T00:46:51.056Z,103536.50
2023-02-11T00:49:17.685Z,103535.31
2023-02-11T00:51:44.253Z,103522.34
2023-02-11T00:54:10.888Z,103527.56
2023-02-11T00:56:37.490Z,103512.63
2023-02-11T00:59:04.063Z,103506.59
2023-02-11T01:01:30.658Z,103500.44
2023-02-11T01:03:57.206Z,103510.22
2023-02-11T01:06:23.871Z,103515.38
2023-02-11T01:08:50.450Z,103508.31
2023-02-11T01:11:19.449Z,103505.78
2023-02-11T01:13:47.804Z,103517.91
2023-02-11T01:16:14.935Z,103535.56
2023-02-11T01:18:44.278Z,103539.16
2023-02-11T01:21:11.397Z,103546.34
2023-02-11T01:23:37.981Z,103549.97
2023-02-11T01:26:05.068Z,103567.50
2023-02-11T01:28:32.204Z,103549.25
2023-02-11T01:31:00.533Z,103549.97
2023-02-11T01:33:27.113Z,103539.66
2023-02-11T01:35:53.834Z,103547.25
2023-02-11T01:38:23.458Z,103549.91
2023-02-11T01:40:53.533Z,103537.88
2023-02-11T01:43:20.438Z,103530.84
2023-02-11T01:45:49.914Z,103554.34
2023-02-11T01:48:38.731Z,103553.47
2023-02-11T01:51:43.552Z,103556.31
2023-02-11T01:54:32.721Z,103558.91
2023-02-11T01:57:19.592Z,103557.13
2023-02-11T01:59:49.308Z,103551.84
2023-02-11T02:02:20.010Z,103545.53
2023-02-11T02:04:58.209Z,103537.81
2023-02-11T02:07:53.836Z,103540.25
2023-02-11T02:10:24.395Z,103535.09
2023-02-11T02:12:51.001Z,103522.91
2023-02-11T02:15:33.914Z,103534.94
2023-02-11T02:18:36.710Z,103535.88
2023-02-11T02:21:40.611Z,103535.88
2023-02-11T02:24:14.232Z,103521.78
2023-02-11T02:27:18.184Z,103517.44
2023-02-11T02:30:08.815Z,103512.38
2023-02-11T02:32:43.224Z,103526.28
2023-02-11T02:35:26.313Z,103514.78
2023-02-11T02:38:05.627Z,103518.34
2023-02-11T02:40:40.213Z,103535.09
2023-02-11T02:43:09.000Z,103536.88
2023-02-11T02:45:35.666Z,103534.22
2023-02-11T02:48:02.432Z,103524.56
2023-02-11T02:50:33.694Z,103525.38
2023-02-11T02:53:27.917Z,103519.22
2023-02-11T02:56:12.885Z,103518.28
2023-02-11T02:58:52.390Z,103511.34
2023-02-11T03:01:39.265Z,103512.19
2023-02-11T03:04:24.334Z,103513.94
2023-02-11T03:06:50.805Z,103513.06
2023-02-11T03:09:30.173Z,103519.28
2023-02-11T03:11:56.899Z,103508.75
2023-02-11T03:14:27.147Z,103512.25
2023-02-11T03:16:57.346Z,103506.97
2023-02-11T03:19:29.729Z,103496.44
2023-02-11T03:21:57.395Z,103501.75
2023-02-11T03:24:34.552Z,103491.22
2023-02-11T03:27:16.718Z,103485.13
2023-02-11T03:30:00.800Z,103488.56
2023-02-11T03:32:30.829Z,103484.19
2023-02-11T03:35:07.259Z,103483.34
2023-02-11T03:37:40.976Z,103481.66
2023-02-11T03:40:32.562Z,103488.69
2023-02-11T03:43:05.662Z,103490.47
2023-02-11T03:45:32.848Z,103496.63
2023-02-11T03:48:09.354Z,103495.81
2023-02-11T03:50:37.375Z,103497.59
2023-02-11T03:53:05.224Z,103494.09
2023-02-11T03:55:36.671Z,103494.91
2023-02-11T03:58:03.368Z,103495.81
2023-02-11T04:00:36.598Z,103498.47
2023-02-11T04:03:04.112Z,103487.03
2023-02-11T04:05:30.729Z,103489.75
2023-02-11T04:07:57.337Z,103485.38
2023-02-11T04:10:23.925Z,103476.59
2023-02-11T04:12:50.525Z,103486.25
2023-02-11T04:15:17.073Z,103483.66
2023-02-11T04:17:43.753Z,103488.94
2023-02-11T04:20:11.613Z,103488.03
2023-02-11T04:22:38.626Z,103492.47
2023-02-11T04:25:06.412Z,103495.97
2023-02-11T04:27:33.025Z,103493.38
2023-02-11T04:29:59.596Z,103494.25
2023-02-11T04:32:26.131Z,103494.25
2023-02-11T04:34:53.043Z,103502.28
2023-02-11T04:37:19.786Z,103499.66
2023-02-11T04:39:46.331Z,103509.44
2023-02-11T04:42:12.999Z,103511.09
2023-02-11T04:44:39.568Z,103506.72
2023-02-11T04:47:06.092Z,103517.31
2023-02-11T04:49:32.642Z,103520.75
2023-02-11T04:51:59.242Z,103518.97
2023-02-11T04:54:25.759Z,103519.03
2023-02-11T04:56:52.284Z,103516.38
2023-02-11T04:59:18.859Z,103518.16
2023-02-11T05:01:45.437Z,103510.28
2023-02-11T05:04:11.976Z,103508.50
2023-02-11T05:06:39.875Z,103512.00
2023-02-11T05:09:06.733Z,103511.22
2023-02-11T05:11:33.657Z,103505.06
2023-02-11T05:14:00.252Z,103506.78
2023-02-11T05:16:26.980Z,103513.00
2023-02-11T05:18:55.709Z,103505.06
2023-02-11T05:21:22.632Z,103512.94
2023-02-11T05:23:49.186Z,103516.50
2023-02-11T05:26:15.832Z,103511.22
2023-02-11T05:28:43.351Z,103513.00
2023-02-11T05:31:10.767Z,103512.13
2023-02-11T05:33:37.620Z,103507.75
2023-02-11T05:36:08.260Z,103494.69
2023-02-11T05:38:35.347Z,103512.25
2023-02-11T05:41:03.132Z,103512.25
2023-02-11T05:43:29.978Z,103510.59
2023-02-11T05:45:57.196Z,103508.75
2023-02-11T05:48:23.876Z,103505.25
2023-02-11T05:50:50.450Z,103504.41
2023-02-11T05:53:17.062Z,103506.09
2023-02-11T05:55:44.069Z,103513.19
2023-02-11T05:58:10.907Z,103514.97
2023-02-11T06:00:37.900Z,103518.41
2023-02-11T06:03:04.672Z,103516.75
2023-02-11T06:05:31.939Z,103523.69
2023-02-11T06:07:58.722Z,103522.81
2023-02-11T06:10:25.815Z,103525.56
2023-02-11T06:12:52.525Z,103525.47
2023-02-11T06:15:19.111Z,103520.19
2023-02-11T06:17:45.627Z,103519.31
2023-02-11T06:20:12.493Z,103515.84
2023-02-11T06:22:39.170Z,103524.59
2023-02-11T06:25:06.075Z,103513.19
2023-02-11T06:27:32.660Z,103520.28
2023-02-11T06:29:59.211Z,103514.19
2023-02-11T06:32:45.464Z,103514.97
2023-02-11T06:35:12.706Z,103516.88
2023-02-11T06:37:40.139Z,103514.22
2023-02-11T06:40:07.416Z,103503.59
2023-02-11T06:42:36.095Z,103509.88
2023-02-11T06:45:02.781Z,103507.28
2023-02-11T06:47:29.338Z,103518.53
2023-02-11T06:49:55.875Z,103524.75
2023-02-11T06:52:22.485Z,103527.41
2023-02-11T06:54:48.987Z,103531.78
2023-02-11T06:57:15.495Z,103523.84
2023-02-11T06:59:42.183Z,103527.41
2023-02-11T07:02:11.712Z,103521.19
2023-02-11T07:04:38.308Z,103520.38
2023-02-11T07:07:04.865Z,103522.97
2023-02-11T07:09:31.403Z,103527.41
2023-02-11T07:11:57.940Z,103526.44
2023-02-11T07:14:24.723Z,103535.13
2023-02-11T07:16:51.297Z,103541.22
2023-02-11T07:19:17.853Z,103535.03
2023-02-11T07:21:44.388Z,103535.94
2023-02-11T07:24:11.517Z,103542.84
2023-02-11T07:26:38.825Z,103539.28
2023-02-11T07:29:05.542Z,103547.16
2023-02-11T07:31:33.105Z,103544.50
2023-02-11T07:34:01.914Z,103553.31
2023-02-11T07:36:31.852Z,103553.25
2023-02-11T07:38:58.591Z,103552.28
2023-02-11T07:41:27.634Z,103556.66
2023-02-11T07:43:54.752Z,103557.53
2023-02-11T07:46:27.177Z,103564.56
2023-02-11T07:48:54.157Z,103563.69
2023-02-11T07:51:24.492Z,103565.41
2023-02-11T07:53:52.134Z,103561.91
2023-02-11T07:56:20.102Z,103563.56
2023-02-11T07:58:47.130Z,103560.00
2023-02-11T08:01:19.009Z,103565.25
2023-02-11T08:03:45.842Z,103561.72
2023-02-11T08:06:15.054Z,103568.75
2023-02-11T08:08:42.518Z,103566.00
2023-02-11T08:11:12.164Z,103563.28
2023-02-11T08:13:38.828Z,103572.00
2023-02-11T08:16:06.296Z,103565.78
2023-02-11T08:18:33.588Z,103565.66
2023-02-11T08:21:07.650Z,103566.47
2023-02-11T08:23:38.092Z,103562.84
2023-02-11T08:26:13.544Z,103573.28
2023-02-11T08:28:42.298Z,103577.59
2023-02-11T08:31:11.483Z,103580.19
2023-02-11T08:33:40.327Z,103581.84
2023-02-11T08:36:12.469Z,103576.56
2023-02-11T08:38:39.092Z,103587.09
2023-02-11T08:41:06.178Z,103586.09
2023-02-11T08:43:33.454Z,103587.88
2023-02-11T08:46:02.190Z,103586.09
2023-02-11T08:48:29.809Z,103587.78
2023-02-11T08:50:56.928Z,103585.97
2023-02-11T08:53:23.663Z,103587.84
2023-02-11T08:55:55.361Z,103588.59
2023-02-11T08:58:22.349Z,103592.22
2023-02-11T09:00:50.585Z,103592.06
2023-02-11T09:03:18.050Z,103597.34
2023-02-11T09:05:50.154Z,103600.91
2023-02-11T09:08:17.111Z,103607.94
2023-02-11T09:10:43.688Z,103616.75
2023-02-11T09:13:10.488Z,103619.34
2023-02-11T09:15:37.281Z,103609.72
2023-02-11T09:18:04.393Z,103618.47
2023-02-11T09:20:31.391Z,103614.09
2023-02-11T09:22:59.195Z,103622.91
2023-02-11T09:25:25.871Z,103615.06
2023-02-11T09:27:53.782Z,103624.75
2023-02-11T09:30:20.750Z,103629.13
2023-02-11T09:32:47.392Z,103634.41
2023-02-11T09:35:14.054Z,103633.56
2023-02-11T09:37:40.629Z,103624.69
2023-02-11T09:40:07.696Z,103623.81
2023-02-11T09:42:44.278Z,103634.31
2023-02-11T09:45:20.543Z,103643.84
2023-02-11T09:47:52.812Z,103652.59
2023-02-11T09:50:27.931Z,103659.53
2023-02-11T09:53:22.780Z,103664.78
2023-02-11T09:55:55.760Z,103661.16
2023-02-11T09:58:31.982Z,103658.38
2023-02-11T10:01:04.691Z,103668.78
2023-02-11T10:03:46.504Z,103673.13
2023-02-11T10:06:34.344Z,103673.00
2023-02-11T10:09:19.687Z,103677.31
2023-02-11T10:12:11.207Z,103678.13
2023-02-11T10:15:11.666Z,103675.41
2023-02-11T10:18:07.622Z,103674.47
2023-02-11T10:20:42.735Z,103684.16
2023-02-11T10:23:22.472Z,103687.72
2023-02-11T10:25:52.908Z,103700.97
2023-02-11T10:28:22.160Z,103705.34
2023-02-11T10:31:02.636Z,103702.75
2023-02-11T10:33:37.033Z,103699.25
2023-02-11T10:36:06.916Z,103696.53
2023-02-11T10:38:33.947Z,103695.59
2023-02-11T10:41:00.578Z,103710.56
2023-02-11T10:43:29.052Z,103706.94
2023-02-11T10:45:57.343Z,103706.00
2023-02-11T10:48:44.102Z,103694.50
2023-02-11T10:51:12.308Z,103702.31
2023-02-11T10:53:40.699Z,103703.19
2023-02-11T10:56:10.601Z,103705.78
2023-02-11T10:58:45.906Z,103706.56
2023-02-11T11:01:23.879Z,103711.06
2023-02-11T11:03:52.903Z,103711.00
2023-02-11T11:06:31.912Z,103711.88
2023-02-11T11:08:58.996Z,103706.56
2023-02-11T11:11:27.320Z,103705.72
2023-02-11T11:13:53.819Z,103715.22
2023-02-11T11:16:34.006Z,103711.72
2023-02-11T11:19:06.548Z,103721.41
2023-02-11T11:21:44.002Z,103732.00
2023-02-11T11:24:27.920Z,103726.69
2023-02-11T11:26:57.344Z,103731.06
2023-02-11T11:29:32.799Z,103728.47
2023-02-11T11:32:04.688Z,103736.44
2023-02-11T11:34:38.263Z,103744.31
2023-02-11T11:37:18.729Z,103739.03
2023-02-11T11:39:55.811Z,103742.47
2023-02-11T11:42:33.576Z,103750.44
2023-02-11T11:45:19.585Z,103744.16
2023-02-11T11:48:01.487Z,103743.22
2023-02-11T11:50:36.853Z,103744.16
2023-02-11T11:53:31.412Z,103737.00
2023-02-11T11:56:05.481Z,103742.25
2023-02-11T11:58:33.162Z,103736.06
2023-02-11T12:01:06.482Z,103729.75
2023-02-11T12:03:42.054Z,103727.97
2023-02-11T12:06:20.940Z,103726.19
2023-02-11T12:09:17.397Z,103732.34
2023-02-11T12:11:56.223Z,103734.94
2023-02-11T12:14:50.704Z,103738.47
2023-02-11T12:17:37.625Z,103732.22
2023-02-11T12:20:24.735Z,103737.47
2023-02-11T12:22:57.299Z,103736.59
2023-02-11T12:25:59.853Z,103728.72
2023-02-11T12:28:29.435Z,103729.53
2023-02-11T12:31:13.203Z,103732.09
2023-02-11T12:33:58.901Z,103732.97
2023-02-11T12:36:41.970Z,103735.56
2023-02-11T12:39:16.218Z,103727.56
2023-02-11T12:43:02.442Z,103737.19
2023-02-11T12:45:31.696Z,103740.66
2023-02-11T12:48:23.387Z,103741.47
2023-02-11T12:51:35.244Z,103739.59
2023-02-11T12:54:11.016Z,103747.56
2023-02-11T12:56:45.595Z,103734.31
2023-02-11T12:59:20.760Z,103724.56
2023-02-11T13:01:50.858Z,103729.81
2023-02-11T13:04:26.904Z,103728.81
2023-02-11T13:07:02.348Z,103722.59
2023-02-11T13:09:35.864Z,103720.81
2023-02-11T13:12:24.707Z,103721.56
2023-02-11T13:14:56.793Z,103714.53
2023-02-11T13:17:34.848Z,103715.41
2023-02-11T13:20:15.104Z,103714.53
2023-02-11T13:22:57.222Z,103720.66
2023-02-11T13:25:33.192Z,103722.38
2023-02-11T13:28:27.651Z,103716.16
2023-02-11T13:31:02.713Z,103723.16
2023-02-11T13:33:45.828Z,103717.00
2023-02-11T13:36:14.613Z,103721.44
2023-02-11T13:38:41.761Z,103721.38
2023-02-11T13:41:27.728Z,103715.22
2023-02-11T13:44:08.364Z,103722.19
2023-02-11T13:46:53.877Z,103718.59
2023-02-11T13:49:25.284Z,103714.16
2023-02-11T13:51:53.560Z,103712.44
2023-02-11T13:54:24.979Z,103714.97
2023-02-11T13:57:16.343Z,103718.47
2023-02-11T13:59:42.795Z,103708.81
2023-02-11T14:02:45.277Z,103708.75
2023-02-11T14:05:45.998Z,103710.66
2023-02-11T14:08:31.254Z,103709.59
2023-02-11T14:11:00.601Z,103713.13
2023-02-11T14:13:50.046Z,103714.91
2023-02-11T14:16:28.309Z,103727.16
2023-02-11T14:19:03.341Z,103727.16
2023-02-11T14:21:36.648Z,103724.50
2023-02-11T14:24:04.915Z,103731.53
2023-02-11T14:26:53.196Z,103730.59
2023-02-11T14:29:31.502Z,103734.97
2023-02-11T14:32:13.439Z,103727.88
2023-02-11T14:35:08.140Z,103731.41
2023-02-11T14:37:52.858Z,103724.31
2023-02-11T14:40:25.881Z,103730.41
2023-02-11T14:42:54.388Z,103726.81
2023-02-11T14:45:25.637Z,103725.97
2023-02-11T14:48:05.579Z,103736.44
2023-02-11T14:50:40.420Z,103730.13
2023-02-11T14:53:07.986Z,103734.56
2023-02-11T14:55:38.043Z,103739.81
2023-02-11T14:58:16.740Z,103739.75
2023-02-11T15:00:55.540Z,103743.25
2023-02-11T15:03:31.158Z,103747.63
2023-02-11T15:06:16.458Z,103746.72
2023-02-11T15:08:56.556Z,103741.41
2023-02-11T15:11:25.371Z,103737.88
2023-02-11T15:13:55.372Z,103732.59
2023-02-11T15:16:28.585Z,103747.50
2023-02-11T15:19:00.606Z,103737.75
2023-02-11T15:21:30.484Z,103743.13
2023-02-11T15:24:06.038Z,103749.22
2023-02-11T15:26:33.478Z,103747.56
2023-02-11T15:29:00.790Z,103746.66
2023-02-11T15:31:28.283Z,103754.53
2023-02-11T15:33:55.426Z,103757.19
2023-02-11T15:36:28.676Z,103759.78
2023-02-11T15:39:47.585Z,103758.06
2023-02-11T15:42:28.208Z,103757.19
2023-02-11T15:45:16.570Z,103761.63
2023-02-11T15:47:49.506Z,103759.78
2023-02-11T15:50:25.783Z,103761.56
2023-02-11T15:52:53.664Z,103758.91
2023-02-11T15:55:21.107Z,103766.94
2023-02-11T15:57:57.583Z,103755.41
2023-02-11T16:00:30.199Z,103750.09
2023-02-11T16:02:56.784Z,103761.50
2023-02-11T16:05:35.817Z,103758.91
2023-02-11T16:08:22.333Z,103756.28
2023-02-11T16:11:24.705Z,103765.16
2023-02-11T16:13:51.260Z,103763.38
2023-02-11T16:19:04.606Z,103776.63
2023-02-11T16:21:39.262Z,103782.75
2023-02-11T16:24:08.019Z,103784.53
2023-02-11T16:26:43.161Z,103787.03
2023-02-11T16:29:12.554Z,103788.69
2023-02-11T16:31:42.610Z,103792.31
2023-02-11T16:34:28.433Z,103791.41
2023-02-11T16:36:55.042Z,103795.78
2023-02-11T16:39:22.509Z,103787.81
2023-02-11T16:41:52.701Z,103787.81
2023-02-11T16:44:19.930Z,103790.47
2023-02-11T16:46:46.561Z,103784.38
2023-02-11T16:49:31.353Z,103798.50
2023-02-11T16:52:05.523Z,103802.06
2023-02-11T16:54:32.572Z,103806.63
2023-02-11T16:56:59.268Z,103812.84
2023-02-11T16:59:26.024Z,103819.03
2023-02-11T17:01:53.803Z,103812.84
2023-02-11T17:04:25.460Z,103812.03
2023-02-11T17:06:52.231Z,103815.63
2023-02-11T17:09:22.073Z,103816.50
2023-02-11T17:11:49.416Z,103813.03
2023-02-11T17:14:16.321Z,103821.91
2023-02-11T17:16:43.873Z,103822.78
2023-02-11T17:19:13.240Z,103821.00
2023-02-11T17:21:44.425Z,103820.19
2023-02-11T17:24:11.643Z,103840.50
2023-02-11T17:26:39.361Z,103840.50
2023-02-11T17:29:07.747Z,103836.09
2023-02-11T17:31:35.201Z,103839.69
2023-02-11T17:34:02.004Z,103840.59
2023-02-11T17:36:31.315Z,103845.84
2023-02-11T17:38:58.880Z,103845.91
2023-02-11T17:41:25.747Z,103848.56
2023-02-11T17:43:52.582Z,103854.75
2023-02-11T17:46:19.301Z,103859.19
2023-02-11T17:48:46.074Z,103861.91
2023-02-11T17:51:31.552Z,103865.34
2023-02-11T17:54:01.295Z,103862.75
2023-02-11T17:56:29.922Z,103868.00
2023-02-11T17:58:56.484Z,103866.28
2023-02-11T18:01:23.254Z,103870.72
2023-02-11T18:03:49.862Z,103871.63
2023-02-11T18:06:16.537Z,103868.94
2023-02-11T18:08:43.151Z,103869.94
2023-02-11T18:11:12.252Z,103877.81
2023-02-11T18:13:38.853Z,103874.38
2023-02-11T18:16:08.637Z,103871.72
2023-02-11T18:18:35.688Z,103875.25
2023-02-11T18:21:08.974Z,103879.59
2023-02-11T18:23:35.956Z,103877.97
2023-02-11T18:26:03.080Z,103877.81
2023-02-11T18:28:29.687Z,103889.44
2023-02-11T18:31:00.457Z,103887.56
2023-02-11T18:33:29.713Z,103893.72
2023-02-11T18:35:56.493Z,103895.50
2023-02-11T18:38:23.937Z,103893.81
2023-02-11T18:40:50.725Z,103891.22
2023-02-11T18:43:18.294Z,103885.91
2023-02-11T18:45:49.525Z,103881.53
2023-02-11T18:48:17.848Z,103891.16
2023-02-11T18:50:46.345Z,103906.22
2023-02-11T18:53:15.920Z,103899.13
2023-02-11T18:55:44.847Z,103891.22
2023-02-11T18:58:11.941Z,103892.09
2023-02-11T19:00:41.199Z,103895.59
2023-02-11T19:03:07.820Z,103896.47
2023-02-11T19:06:00.482Z,103892.16
2023-02-11T19:08:27.023Z,103896.53
2023-02-11T19:10:53.592Z,103893.88
2023-02-11T19:13:20.149Z,103892.09
2023-02-11T19:15:46.841Z,103899.19
2023-02-11T19:18:15.618Z,103900.03
2023-02-11T19:20:43.667Z,103898.31
2023-02-11T19:23:11.027Z,103902.69
2023-02-11T19:25:38.170Z,103906.34
2023-02-11T19:28:04.794Z,103911.59
2023-02-11T19:30:31.520Z,103911.59
2023-02-11T19:32:58.394Z,103916.88
2023-02-11T19:35:25.445Z,103920.41
2023-02-11T19:37:52.047Z,103916.81
2023-02-11T19:40:21.329Z,103925.72
2023-02-11T19:42:48.292Z,103918.63
2023-02-11T19:45:14.977Z,103928.38
2023-02-11T19:47:41.497Z,103923.97
2023-02-11T19:50:08.964Z,103918.72
2023-02-11T19:52:38.352Z,103925.75
2023-02-11T19:55:05.181Z,103926.63
2023-02-11T19:57:31.796Z,103929.28
2023-02-11T19:59:58.330Z,103939.91
2023-02-11T20:02:24.991Z,103933.72
2023-02-11T20:04:51.690Z,103939.03
2023-02-11T20:07:18.228Z,103937.25
2023-02-11T20:09:44.860Z,103949.59
2023-02-11T20:12:12.096Z,103938.16
2023-02-11T20:14:38.788Z,103953.16
2023-02-11T20:17:05.381Z,103947.84
2023-02-11T20:19:32.065Z,103952.28
2023-02-11T20:21:58.649Z,103954.94
2023-02-11T20:24:25.989Z,103956.72
2023-02-11T20:26:55.761Z,103953.16
2023-02-11T20:29:23.714Z,103952.28
2023-02-11T20:31:50.574Z,103955.88
2023-02-11T20:34:17.863Z,103952.28
2023-02-11T20:36:51.529Z,103962.91
2023-02-11T20:39:18.876Z,103962.03
2023-02-11T20:41:46.141Z,103958.53
2023-02-11T20:44:13.679Z,103971.72
2023-02-11T20:46:42.935Z,103976.22
2023-02-11T20:49:14.389Z,103974.44
2023-02-11T20:51:41.521Z,103975.31
2023-02-11T20:54:12.471Z,103972.66
2023-02-11T20:56:39.241Z,103973.63
2023-02-11T20:59:06.580Z,103984.19
2023-02-11T21:01:36.390Z,103984.13
2023-02-11T21:04:04.551Z,103992.09
2023-02-11T21:06:34.202Z,103999.19
2023-02-11T21:09:01.014Z,103993.88
2023-02-11T21:11:27.651Z,103993.88
2023-02-11T21:13:54.235Z,104003.56
2023-02-11T21:16:21.301Z,103999.19
2023-02-11T21:18:49.109Z,103999.19
2023-02-11T21:21:17.400Z,104006.22
2023-02-11T21:23:44.028Z,104000.09
2023-02-11T21:26:10.831Z,104004.44
2023-02-11T21:28:40.530Z,104014.97
2023-02-11T21:31:08.333Z,104008.81
2023-02-11T21:33:35.140Z,104016.75
2023-02-11T21:36:04.606Z,104015.97
2023-02-11T21:38:31.183Z,104020.34
2023-02-11T21:41:06.073Z,104029.09
2023-02-11T21:43:33.568Z,104025.59
2023-02-11T21:46:00.534Z,104019.41
2023-02-11T21:48:27.129Z,104027.44
2023-02-11T21:50:53.684Z,104030.81
2023-02-11T21:53:20.588Z,104026.50
2023-02-11T21:55:47.200Z,104029.09
2023-02-11T21:58:14.384Z,104034.41
2023-02-11T22:00:41.064Z,104032.53
2023-02-11T22:03:07.656Z,104028.16
2023-02-11T22:05:34.362Z,104037.06
2023-02-11T22:08:00.952Z,104043.28
2023-02-11T22:10:27.535Z,104047.59
2023-02-11T22:12:54.149Z,104044.00
2023-02-11T22:15:20.798Z,104044.00
2023-02-11T22:17:47.375Z,104046.66
2023-02-11T22:20:13.997Z,104049.25
2023-02-11T22:22:40.595Z,104055.50
2023-02-11T22:25:07.571Z,104044.88
2023-02-11T22:27:34.158Z,104041.31
2023-02-11T22:30:00.881Z,104039.56
2023-02-11T22:32:27.457Z,104043.91
2023-02-11T22:34:54.050Z,104045.69
2023-02-11T22:37:20.733Z,104041.31
2023-02-11T22:39:47.412Z,104044.81
2023-02-11T22:42:13.999Z,104052.84
2023-02-11T22:44:40.719Z,104049.22
2023-02-11T22:47:07.292Z,104048.34
2023-02-11T22:49:34.422Z,104041.38
2023-02-11T22:52:01.255Z,104041.38
2023-02-11T22:54:28.088Z,104041.31
2023-02-11T22:56:54.666Z,104043.91
2023-02-11T22:59:21.711Z,104050.06
2023-02-11T23:01:48.414Z,104043.03
2023-02-11T23:04:17.004Z,104050.13
2023-02-11T23:06:43.729Z,104049.25
2023-02-11T23:09:12.401Z,104052.84
2023-02-11T23:11:39.731Z,104059.06
2023-02-11T23:14:08.583Z,104063.50
2023-02-11T23:16:35.264Z,104059.28
2023-02-11T23:19:05.601Z,104061.91
2023-02-11T23:21:34.434Z,104069.81
2023-02-11T23:24:04.444Z,104072.53
2023-02-11T23:26:31.128Z,104069.88
2023-02-11T23:28:59.101Z,104070.78
2023-02-11T23:31:33.969Z,104069.06
2023-02-11T23:34:01.354Z,104062.94
2023-02-11T23:36:28.312Z,104063.00
2023-02-11T23:38:54.868Z,104063.94
2023-02-11T23:41:21.815Z,104059.47
2023-02-11T23:43:53.052Z,104056.94
2023-02-11T23:46:21.831Z,104071.88
2023-02-11T23:48:49.585Z,104063.19
2023-02-11T23:51:16.183Z,104070.19
2023-02-11T23:53:43.197Z,104077.28
2023-02-11T23:56:13.578Z,104066.78
2023-02-11T23:58:40.269Z,104068.50
